Time;durP1;ratioP1;P1;durP2;ratioP2;P2;SDS_P1;SDS_P2;PMS_P1;PMS_P2;Temp;Humidity;BMP_temperature;BMP_pressure;BME280_temperature;BME280_humidity;BME280_pressure;Samples;Min_cycle;Max_cycle;Signal;HPM_P1;HPM_P2
2021/08/27 00:00:36;;;;;;;0.10;0.10;;;;;;;;;;5013237;28;20398;-92
2021/08/27 00:03:01;;;;;;;0.10;0.10;;;;;;;;;;4980914;28;20034;-91
2021/08/27 00:05:27;;;;;;;0.10;0.10;;;;;;;;;;4996878;28;20040;-92
2021/08/27 00:07:53;;;;;;;0.10;0.10;;;;;;;;;;4980713;28;20485;-92
2021/08/27 00:10:19;;;;;;;0.10;0.10;;;;;;;;;;4980552;28;20041;-92
2021/08/27 00:12:45;;;;;;;0.10;0.10;;;;;;;;;;4996948;28;20073;-91
2021/08/27 00:15:11;;;;;;;0.20;0.20;;;;;;;;;;4980678;28;20117;-91
2021/08/27 00:17:37;;;;;;;0.10;0.10;;;;;;;;;;4996880;28;20038;-91
2021/08/27 00:20:04;;;;;;;0.10;0.10;;;;;;;;;;4980473;28;20042;-92
2021/08/27 00:22:30;;;;;;;0.10;0.10;;;;;;;;;;4980283;28;20038;-91
2021/08/27 00:24:56;;;;;;;0.10;0.10;;;;;;;;;;4996885;28;20052;-91
2021/08/27 00:27:22;;;;;;;0.10;0.10;;;;;;;;;;4996533;28;20045;-91
2021/08/27 00:29:48;;;;;;;0.10;0.10;;;;;;;;;;4996182;28;20107;-91
2021/08/27 00:32:14;;;;;;;0.10;0.10;;;;;;;;;;4996163;28;20342;-91
2021/08/27 00:34:40;;;;;;;0.10;0.10;;;;;;;;;;5012343;28;20045;-91
2021/08/27 00:37:06;;;;;;;0.10;0.10;;;;;;;;;;4996229;28;20049;-91
2021/08/27 00:39:32;;;;;;;0.10;0.10;;;;;;;;;;4979802;28;20363;-90
2021/08/27 00:41:58;;;;;;;0.10;0.10;;;;;;;;;;4979747;28;20089;-91
2021/08/27 00:44:24;;;;;;;0.10;0.10;;;;;;;;;;4996136;28;20409;-91
2021/08/27 00:46:50;;;;;;;0.17;0.17;;;;;;;;;;4996367;28;20116;-90
2021/08/27 00:49:16;;;;;;;0.10;0.10;;;;;;;;;;4995833;28;20465;-90
2021/08/27 00:51:42;;;;;;;0.10;0.10;;;;;;;;;;4979983;28;20110;-91
2021/08/27 00:54:08;;;;;;;0.10;0.10;;;;;;;;;;4979420;28;20134;-91
2021/08/27 00:56:34;;;;;;;0.10;0.10;;;;;;;;;;4995852;28;20083;-92
2021/08/27 00:59:01;;;;;;;0.10;0.10;;;;;;;;;;4995967;28;20050;-91
2021/08/27 01:01:27;;;;;;;0.10;0.10;;;;;;;;;;4995912;28;20038;-91
2021/08/27 01:03:53;;;;;;;0.20;0.20;;;;;;;;;;4979510;28;20386;-91
2021/08/27 01:06:22;;;;;;;0.10;0.10;;;;;;;;;;4996000;28;20547;-92
2021/08/27 01:08:52;;;;;;;0.10;0.10;;;;;;;;;;4979789;28;20038;-92
2021/08/27 01:11:25;;;;;;;0.10;0.10;;;;;;;;;;4996100;28;20049;-91
2021/08/27 01:14:17;;;;;;;0.10;0.10;;;;;;;;;;4995883;28;20038;-91
2021/08/27 01:16:49;;;;;;;0.10;0.10;;;;;;;;;;5009260;28;20068;-92
2021/08/27 01:19:24;;;;;;;0.10;0.10;;;;;;;;;;4996136;28;20151;-88
2021/08/27 01:22:09;;;;;;;0.10;0.10;;;;;;;;;;5012210;28;20069;-91
2021/08/27 01:24:35;;;;;;;0.10;0.10;;;;;;;;;;5012001;28;20041;-91
2021/08/27 01:27:02;;;;;;;0.10;0.10;;;;;;;;;;4995682;28;20041;-90
2021/08/27 01:29:29;;;;;;;0.10;0.10;;;;;;;;;;4995834;28;20097;-90
2021/08/27 01:31:58;;;;;;;0.10;0.10;;;;;;;;;;4979010;28;20488;-91
2021/08/27 01:34:27;;;;;;;0.10;0.10;;;;;;;;;;4979181;28;20069;-92
2021/08/27 01:36:54;;;;;;;0.10;0.10;;;;;;;;;;5011593;28;20046;-92
2021/08/27 01:39:20;;;;;;;0.10;0.10;;;;;;;;;;4979228;28;20461;-91
2021/08/27 01:41:50;;;;;;;0.10;0.10;;;;;;;;;;4995286;28;20430;-91
2021/08/27 01:44:16;;;;;;;0.10;0.10;;;;;;;;;;4979235;28;20042;-91
2021/08/27 01:46:42;;;;;;;0.10;0.10;;;;;;;;;;4995189;28;20049;-91
2021/08/27 01:49:08;;;;;;;0.10;0.10;;;;;;;;;;4995313;28;20049;-91
2021/08/27 01:51:35;;;;;;;0.10;0.10;;;;;;;;;;4978322;28;20054;-92
2021/08/27 01:54:01;;;;;;;0.10;0.10;;;;;;;;;;5010645;28;20488;-92
2021/08/27 01:56:27;;;;;;;0.10;0.10;;;;;;;;;;4995197;28;20042;-91
2021/08/27 01:58:53;;;;;;;0.10;0.10;;;;;;;;;;4994978;28;20037;-92
2021/08/27 02:01:19;;;;;;;0.20;0.20;;;;;;;;;;4995221;28;20045;-92
2021/08/27 02:03:45;;;;;;;0.10;0.10;;;;;;;;;;4979081;28;20044;-94
2021/08/27 02:06:13;;;;;;;0.10;0.10;;;;;;;;;;4995527;28;20038;-94
2021/08/27 02:08:39;;;;;;;0.10;0.10;;;;;;;;;;4995535;28;20056;-93
2021/08/27 02:11:05;;;;;;;0.10;0.10;;;;;;;;;;4995692;28;20339;-94
2021/08/27 02:13:30;;;;;;;0.10;0.10;;;;;;;;;;4979174;28;20033;-93
2021/08/27 02:15:57;;;;;;;0.10;0.10;;;;;;;;;;5011644;28;20136;-94
2021/08/27 02:18:23;;;;;;;0.10;0.10;;;;;;;;;;4995525;28;20503;-92
2021/08/27 02:20:49;;;;;;;0.10;0.10;;;;;;;;;;4978959;28;20057;-93
2021/08/27 02:23:15;;;;;;;0.10;0.10;;;;;;;;;;4995518;28;20059;-93
2021/08/27 02:25:43;;;;;;;0.10;0.10;;;;;;;;;;5011720;28;20128;-94
2021/08/27 02:28:09;;;;;;;0.10;0.10;;;;;;;;;;4979341;28;20041;-94
2021/08/27 02:30:35;;;;;;;0.10;0.10;;;;;;;;;;4995348;28;20323;-94
2021/08/27 02:33:01;;;;;;;0.10;0.10;;;;;;;;;;4978970;28;20128;-94
2021/08/27 02:35:27;;;;;;;0.10;0.10;;;;;;;;;;4979151;28;20042;-95
2021/08/27 02:37:53;;;;;;;0.10;0.10;;;;;;;;;;4995512;28;20093;-94
2021/08/27 02:40:19;;;;;;;0.10;0.10;;;;;;;;;;4995112;28;20061;-94
2021/08/27 02:42:45;;;;;;;0.10;0.10;;;;;;;;;;4995334;28;20038;-94
2021/08/27 02:45:12;;;;;;;0.10;0.10;;;;;;;;;;4995289;28;20512;-94
2021/08/27 02:47:38;;;;;;;0.10;0.10;;;;;;;;;;4978870;28;20042;-91
2021/08/27 02:50:04;;;;;;;0.10;0.10;;;;;;;;;;4995067;28;20050;-92
2021/08/27 02:52:35;;;;;;;0.10;0.10;;;;;;;;;;4978772;28;20401;-92
2021/08/27 02:55:04;;;;;;;0.10;0.10;;;;;;;;;;4994947;28;20041;-92
2021/08/27 02:57:38;;;;;;;0.10;0.10;;;;;;;;;;5011170;28;20045;-93
2021/08/27 03:00:04;;;;;;;0.10;0.10;;;;;;;;;;4994929;28;20046;-92
2021/08/27 03:02:30;;;;;;;0.10;0.10;;;;;;;;;;4978671;28;20069;-93
2021/08/27 03:04:56;;;;;;;0.10;0.10;;;;;;;;;;4996284;28;20053;-93
2021/08/27 03:07:22;;;;;;;0.55;0.55;;;;;;;;;;5014494;28;20041;-93
2021/08/27 03:10:07;;;;;;;0.10;0.10;;;;;;;;;;4998319;28;20054;-94
2021/08/27 03:12:53;;;;;;;0.10;0.10;;;;;;;;;;5014814;28;20050;-94
2021/08/27 03:15:21;;;;;;;0.10;0.10;;;;;;;;;;5014278;28;20045;-94
2021/08/27 03:17:47;;;;;;;0.10;0.10;;;;;;;;;;5014484;28;20057;-94
2021/08/27 03:20:19;;;;;;;0.10;0.10;;;;;;;;;;4998326;28;20038;-96
2021/08/27 03:22:46;;;;;;;0.10;0.10;;;;;;;;;;4982164;28;20496;-94
2021/08/27 03:25:13;;;;;;;0.10;0.10;;;;;;;;;;4982168;28;20038;-96
2021/08/27 03:27:46;;;;;;;0.10;0.10;;;;;;;;;;4982044;28;20038;-96
2021/08/27 03:30:16;;;;;;;0.10;0.10;;;;;;;;;;4982137;28;20493;-95
2021/08/27 03:32:46;;;;;;;0.10;0.10;;;;;;;;;;4982215;28;20042;-96
2021/08/27 03:35:13;;;;;;;0.10;0.10;;;;;;;;;;4998292;28;20057;-94
2021/08/27 03:37:39;;;;;;;0.10;0.10;;;;;;;;;;4982581;28;20042;-94
2021/08/27 03:40:05;;;;;;;0.10;0.10;;;;;;;;;;4999623;28;20046;-95
2021/08/27 03:42:31;;;;;;;0.10;0.10;;;;;;;;;;5014721;28;20485;-96
2021/08/27 03:44:57;;;;;;;0.10;0.10;;;;;;;;;;4998864;28;20165;-96
2021/08/27 03:47:23;;;;;;;0.10;0.10;;;;;;;;;;4982468;28;20037;-96
2021/08/27 03:49:49;;;;;;;0.10;0.10;;;;;;;;;;5014038;28;20493;-95
2021/08/27 03:52:15;;;;;;;0.10;0.10;;;;;;;;;;4998409;28;20045;-95
2021/08/27 03:54:41;;;;;;;0.10;0.10;;;;;;;;;;4982348;28;20172;-95
2021/08/27 03:57:07;;;;;;;0.10;0.10;;;;;;;;;;4998283;28;20037;-95
2021/08/27 03:59:36;;;;;;;0.10;0.10;;;;;;;;;;4998041;28;20173;-96
2021/08/27 04:02:03;;;;;;;0.10;0.10;;;;;;;;;;4981955;28;20100;-96
2021/08/27 04:04:29;;;;;;;0.10;0.10;;;;;;;;;;4982272;28;20133;-96
2021/08/27 04:06:56;;;;;;;0.10;0.10;;;;;;;;;;4982606;28;20124;-96
2021/08/27 04:09:22;;;;;;;0.10;0.10;;;;;;;;;;4998458;28;20041;-96
2021/08/27 04:11:49;;;;;;;0.10;0.10;;;;;;;;;;4982009;28;20096;-96
2021/08/27 04:14:15;;;;;;;0.10;0.10;;;;;;;;;;4983169;28;20046;-95
2021/08/27 04:16:42;;;;;;;0.20;0.20;;;;;;;;;;4982268;28;20046;-94
2021/08/27 04:19:08;;;;;;;0.10;0.10;;;;;;;;;;4984154;28;20084;-96
2021/08/27 04:21:34;;;;;;;0.10;0.10;;;;;;;;;;4982435;28;20038;-96
2021/08/27 04:24:00;;;;;;;0.10;0.10;;;;;;;;;;4997541;28;20496;-95
2021/08/27 04:26:26;;;;;;;0.10;0.10;;;;;;;;;;4981742;28;20042;-96
2021/08/27 04:28:53;;;;;;;0.10;0.10;;;;;;;;;;4981436;28;20044;-96
2021/08/27 04:31:19;;;;;;;0.10;0.10;;;;;;;;;;4982208;28;20046;-96
2021/08/27 04:33:45;;;;;;;0.52;0.20;;;;;;;;;;4981368;28;20043;-96
2021/08/27 04:36:11;;;;;;;0.15;0.15;;;;;;;;;;4981458;28;20049;-96
2021/08/27 04:38:37;;;;;;;0.10;0.10;;;;;;;;;;4997649;28;20056;-93
2021/08/27 04:41:03;;;;;;;0.10;0.10;;;;;;;;;;4997658;28;20054;-96
2021/08/27 04:43:29;;;;;;;0.10;0.10;;;;;;;;;;4999837;28;20046;-96
2021/08/27 04:45:55;;;;;;;0.10;0.10;;;;;;;;;;5014129;28;20034;-96
2021/08/27 04:48:21;;;;;;;0.10;0.10;;;;;;;;;;5014413;28;20052;-96
2021/08/27 04:50:48;;;;;;;0.10;0.10;;;;;;;;;;4996838;28;20129;-95
2021/08/27 04:53:14;;;;;;;0.10;0.10;;;;;;;;;;4980725;28;20096;-96
2021/08/27 04:55:40;;;;;;;0.10;0.10;;;;;;;;;;4997348;28;20037;-96
2021/08/27 04:58:06;;;;;;;0.10;0.10;;;;;;;;;;4997728;28;20077;-96
2021/08/27 05:00:32;;;;;;;0.10;0.10;;;;;;;;;;4997335;28;20154;-96
2021/08/27 05:02:58;;;;;;;0.10;0.10;;;;;;;;;;4997758;28;20446;-96
2021/08/27 05:05:25;;;;;;;0.10;0.10;;;;;;;;;;4996468;28;20042;-96
2021/08/27 05:07:51;;;;;;;0.10;0.10;;;;;;;;;;5000035;28;20034;-93
2021/08/27 05:10:16;;;;;;;0.10;0.10;;;;;;;;;;5015716;28;20045;-93
2021/08/27 05:12:42;;;;;;;0.10;0.10;;;;;;;;;;4999140;28;20077;-94
2021/08/27 05:15:08;;;;;;;0.10;0.10;;;;;;;;;;5001956;28;20093;-92
2021/08/27 05:17:39;;;;;;;0.10;0.10;;;;;;;;;;5003516;28;20044;-94
2021/08/27 05:20:06;;;;;;;0.10;0.10;;;;;;;;;;5003759;28;20061;-92
2021/08/27 05:22:32;;;;;;;0.10;0.10;;;;;;;;;;5012229;28;20042;-96
2021/08/27 05:24:59;;;;;;;0.10;0.10;;;;;;;;;;4981519;28;20042;-96
2021/08/27 05:27:25;;;;;;;0.10;0.10;;;;;;;;;;4980390;28;20125;-96
2021/08/27 05:29:51;;;;;;;0.10;0.10;;;;;;;;;;4980765;28;20038;-96
2021/08/27 05:32:17;;;;;;;0.10;0.10;;;;;;;;;;4980614;28;20041;-95
2021/08/27 05:34:43;;;;;;;0.10;0.10;;;;;;;;;;4980955;28;20089;-96
2021/08/27 05:37:09;;;;;;;0.20;0.10;;;;;;;;;;4998688;28;20049;-95
2021/08/27 05:39:38;;;;;;;0.10;0.10;;;;;;;;;;4998087;28;20556;-96
2021/08/27 05:42:05;;;;;;;0.10;0.10;;;;;;;;;;4998497;28;20061;-96
2021/08/27 05:44:31;;;;;;;0.10;0.10;;;;;;;;;;4997008;28;20041;-95
2021/08/27 05:46:57;;;;;;;0.10;0.10;;;;;;;;;;4982470;28;20041;-96
2021/08/27 05:49:25;;;;;;;0.10;0.10;;;;;;;;;;4998232;28;20072;-95
2021/08/27 05:51:52;;;;;;;0.10;0.10;;;;;;;;;;4984145;28;20064;-96
2021/08/27 05:54:18;;;;;;;0.10;0.10;;;;;;;;;;4982608;28;20381;-96
2021/08/27 05:56:45;;;;;;;0.10;0.10;;;;;;;;;;4997678;28;20485;-95
2021/08/27 05:59:11;;;;;;;0.10;0.10;;;;;;;;;;4981144;28;20048;-96
2021/08/27 06:01:42;;;;;;;0.10;0.10;;;;;;;;;;4982276;28;20153;-96
2021/08/27 06:04:08;;;;;;;0.10;0.10;;;;;;;;;;4981389;28;20484;-96
2021/08/27 06:06:37;;;;;;;0.10;0.10;;;;;;;;;;4997617;28;20041;-96
2021/08/27 06:09:05;;;;;;;0.10;0.10;;;;;;;;;;4997408;28;20038;-96
2021/08/27 06:11:31;;;;;;;0.10;0.10;;;;;;;;;;4997266;28;20392;-96
2021/08/27 06:13:57;;;;;;;9.60;0.30;;;;;;;;;;4979520;28;20311;-96
2021/08/27 06:16:23;;;;;;;0.10;0.10;;;;;;;;;;4996614;28;20200;-95
2021/08/27 06:18:49;;;;;;;0.57;0.57;;;;;;;;;;4995754;28;20040;-96
2021/08/27 06:21:17;;;;;;;0.10;0.10;;;;;;;;;;4979624;28;20042;-96
2021/08/27 06:23:43;;;;;;;0.20;0.20;;;;;;;;;;4979540;28;20068;-94
2021/08/27 06:26:09;;;;;;;0.10;0.10;;;;;;;;;;4979590;28;20038;-95
2021/08/27 06:28:36;;;;;;;0.10;0.10;;;;;;;;;;4979688;28;20049;-95
2021/08/27 06:31:02;;;;;;;0.10;0.10;;;;;;;;;;4995345;28;20046;-96
2021/08/27 06:33:31;;;;;;;0.10;0.10;;;;;;;;;;5012141;28;20049;-96
2021/08/27 06:35:57;;;;;;;0.10;0.10;;;;;;;;;;4979860;28;20089;-95
2021/08/27 06:38:24;;;;;;;0.10;0.10;;;;;;;;;;4980129;28;20048;-95
2021/08/27 06:40:51;;;;;;;0.10;0.10;;;;;;;;;;4983113;28;20109;-96
2021/08/27 06:43:17;;;;;;;0.10;0.10;;;;;;;;;;4982780;28;20331;-96
2021/08/27 06:45:43;;;;;;;0.20;0.20;;;;;;;;;;4999287;28;20198;-96
2021/08/27 06:48:09;;;;;;;0.10;0.10;;;;;;;;;;4983083;28;20332;-96
2021/08/27 06:50:38;;;;;;;0.10;0.10;;;;;;;;;;4983067;28;20148;-96
2021/08/27 06:53:05;;;;;;;0.10;0.10;;;;;;;;;;4999270;28;20045;-95
2021/08/27 06:55:32;;;;;;;0.10;0.10;;;;;;;;;;5015650;28;20050;-95
2021/08/27 06:57:59;;;;;;;0.25;0.25;;;;;;;;;;5015279;28;20077;-95
2021/08/27 07:00:26;;;;;;;0.10;0.10;;;;;;;;;;4982697;28;20054;-96
2021/08/27 07:02:52;;;;;;;0.10;0.10;;;;;;;;;;4982688;28;20034;-96
2021/08/27 07:05:18;;;;;;;0.10;0.10;;;;;;;;;;4982502;28;20053;-95
2021/08/27 07:07:44;;;;;;;0.10;0.10;;;;;;;;;;4982671;28;20320;-96
2021/08/27 07:10:10;;;;;;;0.30;0.30;;;;;;;;;;4982729;28;20038;-95
2021/08/27 07:12:36;;;;;;;0.10;0.10;;;;;;;;;;4982402;28;20088;-96
2021/08/27 07:15:03;;;;;;;0.10;0.10;;;;;;;;;;4983006;28;20111;-96
2021/08/27 07:17:29;;;;;;;0.10;0.10;;;;;;;;;;4998799;28;20184;-94
2021/08/27 07:19:55;;;;;;;0.10;0.10;;;;;;;;;;4982627;28;20480;-94
2021/08/27 07:22:21;;;;;;;0.10;0.10;;;;;;;;;;4982321;28;20038;-94
2021/08/27 07:24:47;;;;;;;0.10;0.10;;;;;;;;;;4982520;28;20121;-95
2021/08/27 07:27:14;;;;;;;0.10;0.10;;;;;;;;;;4982262;28;20042;-95
2021/08/27 07:29:40;;;;;;;0.10;0.10;;;;;;;;;;4982367;28;20385;-94
2021/08/27 07:32:11;;;;;;;0.10;0.10;;;;;;;;;;4982664;28;20085;-94
2021/08/27 07:34:37;;;;;;;0.17;0.17;;;;;;;;;;4982577;28;20037;-94
2021/08/27 07:37:03;;;;;;;0.10;0.10;;;;;;;;;;4998248;28;20081;-95
2021/08/27 07:39:29;;;;;;;0.10;0.10;;;;;;;;;;4998105;28;20120;-90
2021/08/27 07:41:55;;;;;;;0.10;0.10;;;;;;;;;;4997632;28;20088;-95
2021/08/27 07:44:21;;;;;;;0.10;0.10;;;;;;;;;;4998028;28;20073;-95
2021/08/27 07:46:49;;;;;;;0.10;0.10;;;;;;;;;;4982418;28;20038;-96
2021/08/27 07:49:15;;;;;;;0.10;0.10;;;;;;;;;;4982191;28;20131;-95
2021/08/27 07:51:46;;;;;;;0.10;0.10;;;;;;;;;;4981123;28;20507;-94
2021/08/27 07:54:12;;;;;;;0.10;0.10;;;;;;;;;;5014151;28;20121;-96
2021/08/27 07:56:38;;;;;;;0.10;0.10;;;;;;;;;;4997862;28;20077;-96
2021/08/27 07:59:04;;;;;;;0.10;0.10;;;;;;;;;;4981348;28;20056;-95
2021/08/27 08:01:30;;;;;;;0.10;0.10;;;;;;;;;;4998030;28;20337;-94
2021/08/27 08:03:57;;;;;;;0.10;0.10;;;;;;;;;;4981217;28;20034;-95
2021/08/27 08:06:23;;;;;;;0.10;0.10;;;;;;;;;;4981411;28;20038;-94
2021/08/27 08:08:50;;;;;;;0.10;0.10;;;;;;;;;;4981406;28;20065;-95
2021/08/27 08:11:16;;;;;;;0.10;0.10;;;;;;;;;;4981273;28;20042;-95
2021/08/27 08:13:42;;;;;;;0.10;0.10;;;;;;;;;;4981053;28;20444;-96
2021/08/27 08:16:08;;;;;;;0.17;0.17;;;;;;;;;;4981240;28;20141;-95
2021/08/27 08:18:37;;;;;;;0.10;0.10;;;;;;;;;;4997542;28;20042;-96
2021/08/27 08:21:03;;;;;;;0.10;0.10;;;;;;;;;;4981410;28;20041;-95
2021/08/27 08:23:29;;;;;;;0.10;0.10;;;;;;;;;;4997483;28;20393;-96
2021/08/27 08:25:55;;;;;;;0.10;0.10;;;;;;;;;;4981007;28;20284;-93
2021/08/27 08:28:21;;;;;;;0.20;0.20;;;;;;;;;;4997499;28;20038;-93
2021/08/27 08:30:48;;;;;;;1.27;0.20;;;;;;;;;;4997704;28;20038;-93
2021/08/27 08:33:14;;;;;;;0.10;0.10;;;;;;;;;;4981032;28;20052;-94
2021/08/27 08:35:40;;;;;;;0.10;0.10;;;;;;;;;;4980971;28;20046;-95
2021/08/27 08:38:06;;;;;;;0.10;0.10;;;;;;;;;;4980859;28;20048;-94
2021/08/27 08:40:32;;;;;;;0.10;0.10;;;;;;;;;;4980576;28;20116;-93
2021/08/27 08:42:58;;;;;;;0.13;0.13;;;;;;;;;;4996707;28;20057;-94
2021/08/27 08:45:24;;;;;;;0.15;0.15;;;;;;;;;;4980930;28;20498;-93
2021/08/27 08:47:50;;;;;;;0.10;0.10;;;;;;;;;;4997046;28;20045;-95
2021/08/27 08:50:17;;;;;;;0.20;0.20;;;;;;;;;;4997057;28;20055;-94
2021/08/27 08:52:43;;;;;;;0.10;0.10;;;;;;;;;;4981561;28;20052;-94
2021/08/27 08:55:09;;;;;;;0.10;0.10;;;;;;;;;;4999568;28;20511;-93
2021/08/27 08:57:35;;;;;;;0.10;0.10;;;;;;;;;;4983059;28;20049;-92
2021/08/27 09:00:01;;;;;;;0.20;0.20;;;;;;;;;;4982514;28;20405;-93
2021/08/27 09:02:28;;;;;;;0.10;0.10;;;;;;;;;;4979624;28;20038;-94
2021/08/27 09:04:54;;;;;;;0.10;0.10;;;;;;;;;;4996391;28;20042;-93
2021/08/27 09:07:20;;;;;;;0.10;0.10;;;;;;;;;;4996238;28;20056;-93
2021/08/27 09:09:46;;;;;;;0.10;0.10;;;;;;;;;;4980387;28;20042;-93
2021/08/27 09:12:24;;;;;;;0.10;0.10;;;;;;;;;;4996666;28;20068;-94
2021/08/27 09:15:01;;;;;;;0.50;0.50;;;;;;;;;;4980065;28;20042;-95
2021/08/27 09:17:34;;;;;;;0.10;0.10;;;;;;;;;;4979845;28;20041;-93
2021/08/27 09:20:02;;;;;;;0.10;0.10;;;;;;;;;;4979595;28;20045;-92
2021/08/27 09:22:28;;;;;;;0.10;0.10;;;;;;;;;;4996331;28;20140;-92
2021/08/27 09:25:12;;;;;;;0.10;0.10;;;;;;;;;;4979785;28;20046;-91
2021/08/27 09:27:57;;;;;;;0.10;0.10;;;;;;;;;;4979927;28;20484;-92
2021/08/27 09:30:23;;;;;;;0.20;0.20;;;;;;;;;;5011866;28;20052;-92
2021/08/27 09:32:49;;;;;;;0.10;0.10;;;;;;;;;;5011907;28;20081;-92
2021/08/27 09:35:16;;;;;;;0.98;0.65;;;;;;;;;;4979370;28;20088;-91
2021/08/27 09:37:45;;;;;;;0.10;0.10;;;;;;;;;;4995677;28;20077;-91
2021/08/27 09:40:18;;;;;;;0.10;0.10;;;;;;;;;;5011355;28;20477;-90
2021/08/27 09:42:48;;;;;;;0.10;0.10;;;;;;;;;;5011429;28;20042;-92
2021/08/27 09:45:14;;;;;;;0.10;0.10;;;;;;;;;;4979415;28;20156;-91
2021/08/27 09:47:55;;;;;;;0.10;0.10;;;;;;;;;;4979018;28;20511;-93
2021/08/27 09:50:24;;;;;;;0.10;0.10;;;;;;;;;;4979563;28;20077;-93
2021/08/27 09:52:51;;;;;;;0.10;0.10;;;;;;;;;;4995284;28;20219;-91
2021/08/27 09:55:17;;;;;;;1.65;0.82;;;;;;;;;;4979127;28;20243;-90
2021/08/27 09:57:45;;;;;;;0.20;0.20;;;;;;;;;;4995465;28;20125;-91
2021/08/27 10:00:17;;;;;;;0.10;0.10;;;;;;;;;;4979490;28;20057;-92
2021/08/27 10:02:43;;;;;;;0.10;0.10;;;;;;;;;;4995352;28;20088;-92
2021/08/27 10:05:10;;;;;;;0.20;0.20;;;;;;;;;;4995618;28;20365;-93
2021/08/27 10:07:42;;;;;;;0.30;0.30;;;;;;;;;;5011567;28;20037;-90
2021/08/27 10:10:12;;;;;;;1.05;0.43;;;;;;;;;;4979992;28;20512;-93
2021/08/27 10:12:39;;;;;;;0.20;0.20;;;;;;;;;;4995484;28;20133;-91
2021/08/27 10:15:05;;;;;;;0.20;0.20;;;;;;;;;;4998559;28;20481;-91
2021/08/27 10:17:31;;;;;;;0.20;0.20;;;;;;;;;;4982989;28;20064;-92
2021/08/27 10:19:57;;;;;;;0.10;0.10;;;;;;;;;;4982823;28;20125;-92
2021/08/27 10:22:24;;;;;;;0.10;0.10;;;;;;;;;;4983113;28;20126;-90
2021/08/27 10:24:50;;;;;;;0.10;0.10;;;;;;;;;;5015386;28;20133;-90
2021/08/27 10:27:16;;;;;;;0.10;0.10;;;;;;;;;;4982645;28;20070;-91
2021/08/27 10:29:49;;;;;;;0.20;0.20;;;;;;;;;;4998950;28;20046;-93
2021/08/27 10:32:15;;;;;;;0.10;0.10;;;;;;;;;;4983014;28;20045;-92
2021/08/27 10:34:42;;;;;;;0.10;0.10;;;;;;;;;;4982703;28;20066;-92
2021/08/27 10:37:08;;;;;;;0.10;0.10;;;;;;;;;;4983211;28;20046;-93
2021/08/27 10:39:41;;;;;;;0.10;0.10;;;;;;;;;;4998714;28;20073;-92
2021/08/27 10:42:07;;;;;;;0.10;0.10;;;;;;;;;;4982214;28;20129;-91
2021/08/27 10:44:52;;;;;;;0.10;0.10;;;;;;;;;;5014366;28;20054;-90
2021/08/27 10:47:18;;;;;;;0.73;0.20;;;;;;;;;;4998661;28;20513;-90
2021/08/27 10:49:47;;;;;;;0.52;0.52;;;;;;;;;;5014325;28;20042;-91
2021/08/27 10:52:23;;;;;;;0.10;0.10;;;;;;;;;;5015017;28;20531;-90
2021/08/27 10:55:08;;;;;;;0.47;0.47;;;;;;;;;;4982120;28;20191;-90
2021/08/27 10:57:47;;;;;;;0.10;0.10;;;;;;;;;;5014372;28;20046;-90
2021/08/27 11:00:13;;;;;;;0.35;0.35;;;;;;;;;;4981954;28;20033;-90
2021/08/27 11:02:52;;;;;;;0.70;0.20;;;;;;;;;;4998043;28;20369;-90
2021/08/27 11:05:39;;;;;;;0.10;0.10;;;;;;;;;;4997739;28;20612;-91
2021/08/27 11:08:11;;;;;;;0.10;0.10;;;;;;;;;;5013973;28;20038;-90
2021/08/27 11:10:38;;;;;;;0.80;0.40;;;;;;;;;;5013932;28;20052;-90
2021/08/27 11:13:07;;;;;;;0.20;0.20;;;;;;;;;;4981522;28;20038;-90
2021/08/27 11:15:33;;;;;;;0.10;0.10;;;;;;;;;;4981488;28;20279;-90
2021/08/27 11:18:05;;;;;;;0.13;0.13;;;;;;;;;;4981395;28;20190;-90
2021/08/27 11:20:31;;;;;;;0.10;0.10;;;;;;;;;;5013859;28;20399;-90
2021/08/27 11:22:57;;;;;;;0.10;0.10;;;;;;;;;;4997580;28;20037;-90
2021/08/27 11:25:24;;;;;;;0.10;0.10;;;;;;;;;;4980049;28;20204;-92
2021/08/27 11:28:09;;;;;;;0.10;0.10;;;;;;;;;;4997748;28;20411;-90
2021/08/27 11:30:35;;;;;;;0.20;0.20;;;;;;;;;;5013577;28;20052;-90
2021/08/27 11:33:01;;;;;;;0.13;0.13;;;;;;;;;;4997462;28;20404;-90
2021/08/27 11:35:27;;;;;;;0.10;0.10;;;;;;;;;;4997264;28;20042;-90
2021/08/27 11:37:54;;;;;;;0.10;0.10;;;;;;;;;;4997841;28;20394;-91
2021/08/27 11:40:20;;;;;;;0.20;0.20;;;;;;;;;;4997145;28;20135;-90
2021/08/27 11:42:47;;;;;;;0.10;0.10;;;;;;;;;;4980731;28;20050;-91
2021/08/27 11:45:20;;;;;;;0.10;0.10;;;;;;;;;;4997579;28;20038;-91
2021/08/27 11:47:53;;;;;;;0.13;0.13;;;;;;;;;;4997816;28;20134;-90
2021/08/27 11:50:25;;;;;;;0.20;0.20;;;;;;;;;;4981043;28;20479;-90
2021/08/27 11:52:52;;;;;;;0.10;0.10;;;;;;;;;;4981501;28;20073;-91
2021/08/27 11:55:19;;;;;;;0.20;0.20;;;;;;;;;;4997087;28;20503;-92
2021/08/27 11:57:49;;;;;;;0.10;0.10;;;;;;;;;;4997054;28;20045;-90
2021/08/27 12:00:16;;;;;;;0.10;0.10;;;;;;;;;;4981220;28;20041;-90
2021/08/27 12:02:42;;;;;;;0.10;0.10;;;;;;;;;;4997986;28;20129;-92
2021/08/27 12:05:12;;;;;;;0.10;0.10;;;;;;;;;;4980749;28;20117;-91
2021/08/27 12:07:54;;;;;;;2.28;0.20;;;;;;;;;;5013258;28;20085;-91
2021/08/27 12:10:20;;;;;;;0.20;0.20;;;;;;;;;;4980637;28;20041;-91
2021/08/27 12:12:47;;;;;;;0.10;0.10;;;;;;;;;;4980956;28;20049;-92
2021/08/27 12:15:14;;;;;;;0.10;0.10;;;;;;;;;;4996942;28;20125;-90
2021/08/27 12:17:40;;;;;;;0.10;0.10;;;;;;;;;;4980617;28;20046;-92
2021/08/27 12:20:07;;;;;;;0.10;0.10;;;;;;;;;;4980419;28;20042;-90
2021/08/27 12:22:37;;;;;;;0.10;0.10;;;;;;;;;;4996969;28;20049;-90
2021/08/27 12:25:03;;;;;;;0.10;0.10;;;;;;;;;;4997340;28;20044;-91
2021/08/27 12:27:29;;;;;;;0.10;0.10;;;;;;;;;;4980587;28;20465;-88
2021/08/27 12:30:13;;;;;;;0.10;0.10;;;;;;;;;;4980327;28;20037;-91
2021/08/27 12:32:41;;;;;;;0.30;0.30;;;;;;;;;;4996579;28;20141;-90
2021/08/27 12:35:08;;;;;;;0.10;0.10;;;;;;;;;;4980360;28;20054;-91
2021/08/27 12:37:34;;;;;;;0.10;0.10;;;;;;;;;;4980220;28;20124;-90
2021/08/27 12:40:05;;;;;;;0.10;0.10;;;;;;;;;;4996790;28;20050;-92
2021/08/27 12:42:31;;;;;;;0.10;0.10;;;;;;;;;;4980200;28;20046;-90
2021/08/27 12:44:58;;;;;;;0.10;0.10;;;;;;;;;;5012602;28;20503;-91
2021/08/27 12:47:37;;;;;;;0.20;0.20;;;;;;;;;;4996191;28;20054;-91
2021/08/27 12:50:07;;;;;;;0.10;0.10;;;;;;;;;;4996483;28;20038;-91
2021/08/27 12:52:34;;;;;;;0.10;0.10;;;;;;;;;;4996012;28;20046;-91
2021/08/27 12:55:00;;;;;;;0.10;0.10;;;;;;;;;;4996138;28;20046;-90
2021/08/27 12:57:26;;;;;;;0.10;0.10;;;;;;;;;;4996021;28;20049;-91
2021/08/27 13:00:10;;;;;;;0.10;0.10;;;;;;;;;;4979849;28;20038;-91
2021/08/27 13:02:36;;;;;;;0.10;0.10;;;;;;;;;;4979492;28;20042;-92
2021/08/27 13:05:03;;;;;;;0.10;0.10;;;;;;;;;;4995834;28;20037;-92
2021/08/27 13:07:34;;;;;;;0.10;0.10;;;;;;;;;;4995828;28;20046;-91
2021/08/27 13:10:22;;;;;;;0.10;0.10;;;;;;;;;;4980487;28;20481;-90
2021/08/27 13:12:48;;;;;;;0.10;0.10;;;;;;;;;;4980701;28;20088;-90
2021/08/27 13:15:18;;;;;;;0.10;0.10;;;;;;;;;;4995988;28;20088;-91
2021/08/27 13:18:14;;;;;;;0.10;0.10;;;;;;;;;;4995721;28;20057;-90
2021/08/27 13:20:40;;;;;;;0.20;0.20;;;;;;;;;;4999430;28;20046;-91
2021/08/27 13:23:18;;;;;;;0.10;0.10;;;;;;;;;;4995903;28;20049;-91
2021/08/27 13:25:51;;;;;;;0.10;0.10;;;;;;;;;;4995999;28;20049;-91
2021/08/27 13:28:17;;;;;;;0.10;0.10;;;;;;;;;;4995927;28;20045;-90
2021/08/27 13:30:43;;;;;;;0.10;0.10;;;;;;;;;;4995598;28;20045;-92
2021/08/27 13:33:09;;;;;;;0.15;0.15;;;;;;;;;;4979414;28;20496;-91
2021/08/27 13:35:35;;;;;;;0.10;0.10;;;;;;;;;;4979360;28;20042;-91
2021/08/27 13:38:01;;;;;;;0.10;0.10;;;;;;;;;;4995226;28;20048;-92
2021/08/27 13:40:27;;;;;;;0.10;0.10;;;;;;;;;;4995255;28;20049;-90
2021/08/27 13:42:53;;;;;;;0.10;0.10;;;;;;;;;;4995505;28;20104;-92
2021/08/27 13:45:19;;;;;;;0.10;0.10;;;;;;;;;;4995599;28;20049;-91
2021/08/27 13:47:46;;;;;;;0.20;0.20;;;;;;;;;;4995047;28;20037;-92
2021/08/27 13:50:12;;;;;;;0.10;0.10;;;;;;;;;;4995401;28;20053;-90
2021/08/27 13:52:42;;;;;;;0.10;0.10;;;;;;;;;;4995473;28;20386;-92
2021/08/27 13:55:08;;;;;;;0.10;0.10;;;;;;;;;;4995432;28;20342;-91
2021/08/27 13:57:34;;;;;;;0.10;0.10;;;;;;;;;;4995351;28;20096;-91
2021/08/27 14:00:00;;;;;;;0.10;0.10;;;;;;;;;;4979082;28;20045;-92
2021/08/27 14:02:26;;;;;;;0.13;0.13;;;;;;;;;;5011740;28;20037;-91
2021/08/27 14:04:52;;;;;;;0.10;0.10;;;;;;;;;;4979022;28;20041;-92
2021/08/27 14:07:19;;;;;;;0.10;0.10;;;;;;;;;;5011444;28;20068;-91
2021/08/27 14:09:45;;;;;;;0.20;0.20;;;;;;;;;;4995207;28;20046;-92
2021/08/27 14:12:10;;;;;;;0.47;0.25;;;;;;;;;;4995448;28;20107;-91
2021/08/27 14:14:36;;;;;;;0.10;0.10;;;;;;;;;;4995166;28;20042;-92
2021/08/27 14:17:03;;;;;;;2.65;0.85;;;;;;;;;;5010950;28;20038;-91
2021/08/27 14:19:28;;;;;;;0.32;0.32;;;;;;;;;;4979048;28;20136;-91
2021/08/27 14:21:54;;;;;;;0.10;0.10;;;;;;;;;;4978523;28;20124;-91
2021/08/27 14:24:20;;;;;;;0.10;0.10;;;;;;;;;;4994961;28;20045;-91
2021/08/27 14:26:46;;;;;;;0.10;0.10;;;;;;;;;;5010960;28;20437;-90
2021/08/27 14:29:12;;;;;;;0.20;0.20;;;;;;;;;;4995208;28;20096;-91
2021/08/27 14:31:39;;;;;;;0.20;0.20;;;;;;;;;;4994902;28;20041;-90
2021/08/27 14:34:05;;;;;;;0.10;0.10;;;;;;;;;;4978493;28;20046;-90
2021/08/27 14:36:32;;;;;;;0.10;0.10;;;;;;;;;;5010911;28;20049;-90
2021/08/27 14:38:58;;;;;;;0.10;0.10;;;;;;;;;;4978718;28;20084;-90
2021/08/27 14:41:24;;;;;;;0.10;0.10;;;;;;;;;;5010784;28;20057;-91
2021/08/27 14:43:50;;;;;;;0.40;0.40;;;;;;;;;;4995020;28;20037;-92
2021/08/27 14:46:16;;;;;;;0.10;0.10;;;;;;;;;;4978707;28;20473;-92